createdAt,value
2023-02-12T00:00:16.108Z,70.53
2023-02-12T00:00:47.996Z,70.50
2023-02-12T00:01:22.194Z,69.27
2023-02-12T00:01:54.014Z,69.27
2023-02-12T00:02:25.902Z,68.70
2023-02-12T00:02:57.686Z,68.30
2023-02-12T00:03:29.596Z,69.37
2023-02-12T00:04:01.804Z,70.50
2023-02-12T00:04:34.091Z,70.77
2023-02-12T00:05:06.235Z,68.80
2023-02-12T00:05:39.760Z,70.33
2023-02-12T00:06:13.591Z,69.33
2023-02-12T00:06:47.250Z,68.80
2023-02-12T00:07:19.096Z,71.30
2023-02-12T00:07:51.238Z,72.37
2023-02-12T00:08:22.964Z,73.47
2023-02-12T00:08:56.559Z,72.47
2023-02-12T00:09:28.356Z,72.33
2023-02-12T00:10:00.177Z,72.07
2023-02-12T00:10:31.937Z,70.30
2023-02-12T00:11:09.688Z,70.77
2023-02-12T00:11:42.001Z,71.47
2023-02-12T00:12:14.319Z,68.63
2023-02-12T00:12:46.218Z,68.43
2023-02-12T00:13:17.985Z,66.77
2023-02-12T00:13:50.375Z,68.77
2023-02-12T00:14:22.075Z,67.57
2023-02-12T00:14:53.861Z,69.00
2023-02-12T00:15:25.654Z,67.87
2023-02-12T00:15:57.735Z,68.07
2023-02-12T00:16:29.910Z,67.97
2023-02-12T00:17:01.628Z,67.90
2023-02-12T00:17:33.478Z,69.47
2023-02-12T00:18:05.242Z,65.83
2023-02-12T00:18:37.057Z,67.13
2023-02-12T00:19:09.628Z,68.03
2023-02-12T00:19:41.309Z,68.40
2023-02-12T00:20:13.357Z,66.83
2023-02-12T00:20:45.208Z,65.77
2023-02-12T00:21:17.578Z,67.93
2023-02-12T00:21:49.332Z,60.50
2023-02-12T00:22:21.083Z,56.70
2023-02-12T00:22:52.816Z,62.07
2023-02-12T00:23:26.072Z,65.33
2023-02-12T00:23:58.502Z,66.33
2023-02-12T00:24:30.300Z,66.00
2023-02-12T00:25:02.028Z,64.50
2023-02-12T00:25:34.656Z,65.83
2023-02-12T00:26:08.260Z,65.63
2023-02-12T00:26:40.030Z,68.00
2023-02-12T00:27:11.774Z,68.17
2023-02-12T00:27:43.522Z,68.43
2023-02-12T00:28:15.620Z,67.57
2023-02-12T00:28:47.785Z,68.83
2023-02-12T00:29:19.529Z,68.37
2023-02-12T00:29:51.372Z,68.87
2023-02-12T00:30:23.258Z,67.13
2023-02-12T00:30:55.175Z,68.93
2023-02-12T00:31:29.723Z,67.37
2023-02-12T00:32:01.675Z,66.50
2023-02-12T00:32:33.586Z,67.07
2023-02-12T00:33:05.380Z,67.13
2023-02-12T00:33:37.277Z,64.40
2023-02-12T00:34:14.034Z,65.30
2023-02-12T00:34:49.412Z,64.93
2023-02-12T00:35:21.168Z,63.20
2023-02-12T00:35:57.438Z,62.77
2023-02-12T00:36:31.714Z,64.20
2023-02-12T00:37:03.407Z,61.67
2023-02-12T00:37:35.150Z,62.80
2023-02-12T00:38:06.962Z,62.37
2023-02-12T00:38:38.753Z,64.73
2023-02-12T00:39:11.137Z,65.00
2023-02-12T00:39:43.556Z,62.63
2023-02-12T00:40:15.330Z,63.17
2023-02-12T00:40:47.128Z,61.67
2023-02-12T00:41:19.611Z,62.13
2023-02-12T00:41:51.388Z,61.00
2023-02-12T00:42:23.153Z,63.00
2023-02-12T00:42:54.953Z,61.50
2023-02-12T00:43:26.694Z,60.57
2023-02-12T00:43:58.552Z,62.47
2023-02-12T00:44:30.380Z,63.83
2023-02-12T00:45:02.190Z,63.27
2023-02-12T00:45:33.998Z,63.03
2023-02-12T00:46:07.074Z,64.90
2023-02-12T00:46:39.041Z,65.77
2023-02-12T00:47:10.829Z,63.63
2023-02-12T00:47:42.590Z,62.77
2023-02-12T00:48:15.664Z,62.80
2023-02-12T00:48:47.442Z,63.27
2023-02-12T00:49:20.490Z,61.93
2023-02-12T00:49:52.386Z,61.20
2023-02-12T00:50:24.097Z,60.80
2023-02-12T00:50:56.155Z,60.33
2023-02-12T00:51:27.955Z,60.77
2023-02-12T00:52:00.763Z,62.10
2023-02-12T00:52:32.484Z,61.80
2023-02-12T00:53:04.242Z,59.30
2023-02-12T00:53:37.009Z,56.20
2023-02-12T00:54:08.742Z,54.40
2023-02-12T00:54:40.537Z,52.03
2023-02-12T00:55:12.228Z,55.90
2023-02-12T00:55:44.228Z,58.57
2023-02-12T00:56:16.350Z,57.10
2023-02-12T00:56:48.095Z,60.23
2023-02-12T00:57:19.838Z,57.90
2023-02-12T00:57:51.598Z,59.50
2023-02-12T00:58:23.495Z,56.80
2023-02-12T00:58:55.354Z,56.90
2023-02-12T00:59:27.522Z,53.93
2023-02-12T00:59:59.611Z,52.07
2023-02-12T01:00:31.472Z,50.77
2023-02-12T01:01:03.587Z,48.63
2023-02-12T01:01:35.528Z,47.77
2023-02-12T01:02:07.446Z,42.07
2023-02-12T01:02:39.312Z,38.53
2023-02-12T01:03:11.366Z,40.90
2023-02-12T01:03:43.078Z,38.40
2023-02-12T01:04:14.815Z,36.87
2023-02-12T01:04:46.875Z,39.40
2023-02-12T01:05:19.816Z,39.47
2023-02-12T01:05:52.561Z,35.63
2023-02-12T01:06:24.524Z,33.30
2023-02-12T01:06:56.363Z,32.37
2023-02-12T01:07:28.143Z,33.37
2023-02-12T01:08:00.296Z,33.30
2023-02-12T01:08:32.091Z,33.70
2023-02-12T01:09:06.596Z,35.03
2023-02-12T01:09:38.571Z,37.27
2023-02-12T01:10:10.585Z,36.63
2023-02-12T01:10:43.204Z,35.17
2023-02-12T01:11:15.037Z,31.80
2023-02-12T01:11:46.859Z,30.90
2023-02-12T01:12:18.832Z,31.70
2023-02-12T01:12:50.853Z,33.23
2023-02-12T01:13:23.007Z,31.23
2023-02-12T01:13:55.062Z,30.20
2023-02-12T01:14:26.962Z,30.00
2023-02-12T01:14:58.679Z,29.93
2023-02-12T01:15:30.577Z,30.10
2023-02-12T01:16:09.174Z,30.47
2023-02-12T01:16:41.186Z,29.50
2023-02-12T01:17:12.918Z,30.70
2023-02-12T01:17:44.993Z,30.60
2023-02-12T01:18:16.739Z,29.17
2023-02-12T01:18:49.284Z,27.47
2023-02-12T01:19:21.111Z,28.73
2023-02-12T01:19:57.643Z,28.90
2023-02-12T01:20:29.513Z,29.67
2023-02-12T01:21:01.542Z,30.10
2023-02-12T01:21:35.143Z,31.93
2023-02-12T01:22:07.104Z,29.37
2023-02-12T01:22:39.113Z,30.70
2023-02-12T01:23:10.859Z,30.90
2023-02-12T01:23:43.948Z,29.60
2023-02-12T01:24:15.731Z,30.17
2023-02-12T01:24:47.480Z,29.53
2023-02-12T01:25:20.677Z,29.77
2023-02-12T01:25:53.254Z,31.07
2023-02-12T01:26:29.445Z,29.23
2023-02-12T01:27:01.200Z,29.00
2023-02-12T01:27:34.182Z,28.60
2023-02-12T01:28:05.935Z,28.43
2023-02-12T01:28:42.068Z,28.97
2023-02-12T01:29:13.918Z,30.07
2023-02-12T01:29:45.960Z,28.37
2023-02-12T01:30:17.765Z,28.47
2023-02-12T01:30:49.545Z,29.30
2023-02-12T01:31:24.867Z,28.40
2023-02-12T01:31:56.794Z,27.87
2023-02-12T01:32:28.680Z,28.20
2023-02-12T01:33:00.747Z,27.93
2023-02-12T01:33:32.531Z,28.17
2023-02-12T01:34:05.995Z,25.90
2023-02-12T01:34:38.400Z,27.40
2023-02-12T01:35:10.687Z,27.60
2023-02-12T01:35:42.587Z,26.50
2023-02-12T01:36:14.469Z,29.33
2023-02-12T01:36:46.315Z,28.73
2023-02-12T01:37:18.742Z,28.13
2023-02-12T01:37:50.492Z,28.40
2023-02-12T01:38:22.325Z,29.23
2023-02-12T01:38:55.068Z,28.40
2023-02-12T01:39:27.074Z,28.70
2023-02-12T01:39:58.792Z,28.37
2023-02-12T01:40:30.635Z,28.40
2023-02-12T01:41:33.763Z,28.97
2023-02-12T01:42:06.494Z,28.40
2023-02-12T01:42:40.399Z,28.93
2023-02-12T01:43:13.263Z,28.27
2023-02-12T01:43:46.569Z,28.13
2023-02-12T01:44:21.177Z,27.53
2023-02-12T01:45:14.492Z,27.13
2023-02-12T01:45:49.354Z,27.90
2023-02-12T01:46:21.131Z,28.90
2023-02-12T01:46:59.239Z,29.27
2023-02-12T01:47:31.098Z,28.50
2023-02-12T01:48:02.979Z,28.07
2023-02-12T01:48:42.022Z,29.20
2023-02-12T01:49:27.898Z,28.93
2023-02-12T01:49:59.874Z,28.80
2023-02-12T01:50:31.701Z,28.93
2023-02-12T01:51:04.898Z,28.97
2023-02-12T01:51:37.097Z,29.93
2023-02-12T01:52:14.851Z,29.10
2023-02-12T01:52:51.719Z,28.63
2023-02-12T01:53:26.932Z,29.37
2023-02-12T01:54:04.541Z,29.07
2023-02-12T01:54:38.126Z,28.27
2023-02-12T01:55:11.690Z,28.17
2023-02-12T01:55:43.540Z,30.23
2023-02-12T01:56:16.190Z,28.33
2023-02-12T01:56:49.076Z,28.23
2023-02-12T01:57:21.084Z,28.97
2023-02-12T01:57:52.852Z,28.77
2023-02-12T01:58:28.926Z,27.37
2023-02-12T01:59:00.954Z,29.20
2023-02-12T01:59:35.485Z,29.27
2023-02-12T02:00:11.408Z,28.90
2023-02-12T02:00:43.565Z,29.33
2023-02-12T02:01:28.785Z,28.87
2023-02-12T02:02:00.802Z,29.93
2023-02-12T02:02:33.262Z,29.83
2023-02-12T02:03:05.293Z,28.00
2023-02-12T02:03:39.811Z,27.67
2023-02-12T02:04:20.044Z,28.10
2023-02-12T02:04:57.515Z,28.70
2023-02-12T02:05:53.923Z,30.03
2023-02-12T02:06:36.297Z,27.43
2023-02-12T02:07:11.103Z,28.93
2023-02-12T02:07:44.425Z,29.63
2023-02-12T02:08:16.647Z,28.43
2023-02-12T02:08:49.036Z,28.63
2023-02-12T02:09:21.009Z,28.03
2023-02-12T02:09:53.530Z,26.67
2023-02-12T02:10:25.374Z,27.60
2023-02-12T02:10:57.156Z,27.50
2023-02-12T02:11:47.331Z,28.13
2023-02-12T02:12:37.452Z,27.27
2023-02-12T02:13:27.926Z,27.77
2023-02-12T02:14:18.443Z,28.60
2023-02-12T02:14:54.630Z,27.43
2023-02-12T02:15:31.459Z,24.50
2023-02-12T02:16:18.177Z,24.97
2023-02-12T02:17:12.919Z,26.97
2023-02-12T02:18:02.707Z,26.83
2023-02-12T02:18:56.254Z,26.37
2023-02-12T02:20:02.593Z,27.47
2023-02-12T02:21:00.601Z,27.47
2023-02-12T02:21:52.685Z,26.37
2023-02-12T02:22:51.751Z,25.73
2023-02-12T02:23:40.139Z,27.17
2023-02-12T02:24:46.765Z,25.53
2023-02-12T02:25:27.186Z,26.10
2023-02-12T02:26:26.248Z,25.67
2023-02-12T02:27:17.353Z,25.13
2023-02-12T02:27:55.045Z,25.90
2023-02-12T02:28:38.938Z,24.13
2023-02-12T02:29:47.632Z,24.20
2023-02-12T02:30:36.288Z,24.80
2023-02-12T02:31:26.742Z,26.50
2023-02-12T02:32:01.294Z,24.97
2023-02-12T02:32:39.718Z,23.67
2023-02-12T02:33:33.516Z,25.00
2023-02-12T02:34:26.088Z,26.17
2023-02-12T02:35:02.051Z,24.40
2023-02-12T02:35:42.872Z,24.80
2023-02-12T02:36:48.021Z,25.60
2023-02-12T02:37:39.523Z,24.37
2023-02-12T02:38:52.491Z,25.33
2023-02-12T02:39:46.367Z,25.20
2023-02-12T02:40:24.165Z,24.20
2023-02-12T02:41:22.859Z,23.70
2023-02-12T02:42:08.376Z,24.50
2023-02-12T02:43:15.179Z,24.63
2023-02-12T02:43:50.964Z,25.83
2023-02-12T02:44:33.884Z,23.63
2023-02-12T02:45:21.209Z,23.70
2023-02-12T02:46:02.665Z,23.80
2023-02-12T02:46:56.704Z,23.87
2023-02-12T02:48:01.068Z,24.10
2023-02-12T02:48:39.040Z,25.70
2023-02-12T02:49:28.007Z,26.07
2023-02-12T02:50:05.947Z,23.93
2023-02-12T02:50:43.900Z,24.57
2023-02-12T02:51:23.062Z,23.50
2023-02-12T02:52:09.702Z,25.27
2023-02-12T02:52:54.100Z,25.20
2023-02-12T02:53:38.309Z,24.57
2023-02-12T02:54:18.589Z,24.43
2023-02-12T02:54:57.646Z,23.77
2023-02-12T02:55:36.931Z,24.10
2023-02-12T02:56:16.187Z,25.00
2023-02-12T02:56:53.103Z,24.63
2023-02-12T02:57:36.345Z,24.00
2023-02-12T02:58:14.431Z,24.87
2023-02-12T02:59:05.085Z,24.53
2023-02-12T02:59:43.500Z,23.30
2023-02-12T03:00:33.838Z,23.90
2023-02-12T03:01:26.155Z,25.97
2023-02-12T03:02:04.996Z,25.13
2023-02-12T03:02:42.745Z,22.53
2023-02-12T03:03:28.757Z,24.00
2023-02-12T03:04:18.631Z,23.80
2023-02-12T03:04:55.619Z,24.80
2023-02-12T03:05:34.896Z,23.47
2023-02-12T03:06:13.750Z,23.43
2023-02-12T03:06:59.652Z,23.63
2023-02-12T03:07:41.957Z,24.57
2023-02-12T03:08:25.190Z,23.23
2023-02-12T03:09:05.459Z,23.77
2023-02-12T03:09:50.220Z,24.63
2023-02-12T03:10:34.874Z,24.67
2023-02-12T03:11:14.687Z,25.33
2023-02-12T03:11:47.453Z,24.27
2023-02-12T03:12:28.121Z,25.60
2023-02-12T03:13:03.149Z,24.53
2023-02-12T03:13:46.839Z,24.87
2023-02-12T03:14:29.642Z,25.83
2023-02-12T03:15:11.675Z,24.90
2023-02-12T03:16:07.181Z,24.60
2023-02-12T03:16:48.497Z,22.90
2023-02-12T03:17:28.346Z,24.63
2023-02-12T03:18:04.152Z,24.30
2023-02-12T03:18:58.479Z,25.50
2023-02-12T03:19:37.477Z,24.97
2023-02-12T03:20:29.448Z,25.70
2023-02-12T03:21:07.911Z,24.60
2023-02-12T03:21:50.431Z,23.03
2023-02-12T03:22:31.235Z,22.90
2023-02-12T03:23:17.198Z,24.33
2023-02-12T03:24:00.362Z,24.57
2023-02-12T03:24:48.439Z,23.80
2023-02-12T03:25:35.480Z,25.77
2023-02-12T03:26:18.284Z,25.63
2023-02-12T03:26:58.140Z,24.50
2023-02-12T03:27:34.861Z,24.73
2023-02-12T03:28:16.751Z,24.17
2023-02-12T03:28:49.080Z,26.47
2023-02-12T03:29:21.002Z,25.87
2023-02-12T03:29:53.288Z,24.73
2023-02-12T03:30:39.452Z,24.73
2023-02-12T03:31:17.103Z,24.73
2023-02-12T03:32:10.192Z,25.17
2023-02-12T03:32:59.961Z,22.93
2023-02-12T03:34:05.948Z,24.87
2023-02-12T03:35:08.751Z,24.70
2023-02-12T03:35:51.436Z,25.70
2023-02-12T03:36:29.663Z,24.00
2023-02-12T03:37:08.517Z,24.77
2023-02-12T03:38:03.483Z,25.20
2023-02-12T03:38:45.736Z,24.57
2023-02-12T03:39:31.106Z,25.13
2023-02-12T03:40:08.468Z,24.37
2023-02-12T03:40:55.274Z,26.17
2023-02-12T03:41:44.055Z,26.20
2023-02-12T03:42:34.601Z,25.27
2023-02-12T03:43:24.046Z,25.73
2023-02-12T03:44:17.710Z,24.13
2023-02-12T03:45:01.281Z,25.37
2023-02-12T03:45:38.532Z,26.80
2023-02-12T03:46:19.338Z,24.13
2023-02-12T03:47:16.261Z,24.33
2023-02-12T03:48:10.487Z,25.63
2023-02-12T03:49:01.482Z,23.60
2023-02-12T03:49:53.516Z,26.70
2023-02-12T03:50:33.221Z,26.47
2023-02-12T03:51:25.555Z,26.37
2023-02-12T03:51:58.418Z,27.33
2023-02-12T03:52:30.861Z,26.97
2023-02-12T03:53:02.894Z,26.73
2023-02-12T03:53:34.764Z,26.13
2023-02-12T03:54:09.626Z,25.30
2023-02-12T03:54:41.450Z,27.43
2023-02-12T03:55:15.741Z,25.77
2023-02-12T03:55:54.575Z,25.60
2023-02-12T03:56:42.782Z,25.53
2023-02-12T03:57:20.808Z,25.33
2023-02-12T03:58:00.940Z,25.47
2023-02-12T03:58:37.221Z,25.17
2023-02-12T03:59:09.177Z,25.63
2023-02-12T03:59:41.541Z,26.67
2023-02-12T04:00:19.145Z,26.83
2023-02-12T04:00:51.545Z,27.07
2023-02-12T04:01:24.046Z,27.97
2023-02-12T04:01:59.648Z,27.40
2023-02-12T04:02:31.816Z,25.23
2023-02-12T04:03:04.470Z,25.53
2023-02-12T04:03:36.522Z,26.67
2023-02-12T04:04:10.500Z,26.73
2023-02-12T04:04:42.759Z,25.53
2023-02-12T04:05:23.861Z,25.50
2023-02-12T04:05:55.903Z,26.30
2023-02-12T04:06:29.392Z,26.73
2023-02-12T04:07:01.739Z,25.50
2023-02-12T04:07:35.288Z,26.57
2023-02-12T04:08:09.946Z,28.43
2023-02-12T04:08:41.762Z,26.93
2023-02-12T04:09:15.136Z,25.50
2023-02-12T04:09:46.976Z,27.53
2023-02-12T04:10:35.206Z,28.03
2023-02-12T04:11:29.956Z,24.57
2023-02-12T04:12:13.881Z,25.77
2023-02-12T04:13:05.828Z,28.10
2023-02-12T04:14:13.492Z,25.73
2023-02-12T04:15:03.722Z,27.60
2023-02-12T04:15:50.496Z,28.60
2023-02-12T04:16:49.118Z,24.83
2023-02-12T04:17:36.638Z,26.97
2023-02-12T04:18:29.422Z,26.87
2023-02-12T04:19:01.919Z,26.63
2023-02-12T04:19:47.603Z,26.80
2023-02-12T04:21:13.827Z,27.70
2023-02-12T04:22:15.564Z,27.43
2023-02-12T04:23:05.458Z,26.40
2023-02-12T04:24:04.454Z,27.37
2023-02-12T04:24:58.830Z,27.73
2023-02-12T04:25:50.564Z,26.07
2023-02-12T04:26:36.609Z,26.10
2023-02-12T04:27:37.571Z,28.03
2023-02-12T04:28:36.907Z,27.77
2023-02-12T04:29:32.339Z,29.63
2023-02-12T04:30:19.195Z,27.07
2023-02-12T04:31:13.279Z,26.60
2023-02-12T04:31:55.826Z,27.63
2023-02-12T04:32:38.864Z,29.07
2023-02-12T04:33:19.480Z,28.43
2023-02-12T04:34:32.975Z,27.37
2023-02-12T04:35:15.948Z,27.13
2023-02-12T04:36:16.853Z,27.63
2023-02-12T04:36:58.066Z,28.47
2023-02-12T04:37:44.219Z,26.20
2023-02-12T04:38:32.099Z,25.07
2023-02-12T04:39:12.418Z,27.63
2023-02-12T04:39:46.252Z,28.63
2023-02-12T04:40:21.098Z,27.43
2023-02-12T04:40:53.711Z,26.93
2023-02-12T04:41:27.154Z,27.47
2023-02-12T04:42:01.074Z,27.37
2023-02-12T04:42:44.784Z,27.77
2023-02-12T04:43:30.612Z,28.60
2023-02-12T04:44:15.296Z,27.93
2023-02-12T04:44:47.186Z,28.17
2023-02-12T04:45:28.283Z,27.63
2023-02-12T04:46:00.231Z,29.93
2023-02-12T04:46:32.094Z,31.87
2023-02-12T04:47:03.985Z,35.20
2023-02-12T04:47:35.752Z,38.10
2023-02-12T04:48:07.641Z,32.60
2023-02-12T04:48:57.717Z,31.47
2023-02-12T04:49:29.654Z,33.20
2023-02-12T04:50:01.482Z,30.50
2023-02-12T04:50:42.027Z,27.30
2023-02-12T04:51:13.781Z,29.03
2023-02-12T04:51:46.542Z,28.07
2023-02-12T04:52:18.281Z,26.20
2023-02-12T04:52:50.277Z,28.57
2023-02-12T04:53:22.009Z,28.40
2023-02-12T04:53:53.800Z,28.50
2023-02-12T04:54:25.665Z,28.17
2023-02-12T04:54:57.437Z,29.17
2023-02-12T04:55:29.221Z,31.00
2023-02-12T04:56:00.938Z,29.90
2023-02-12T04:56:32.722Z,29.00
2023-02-12T04:57:04.564Z,28.80
2023-02-12T04:57:36.745Z,27.90
2023-02-12T04:58:08.630Z,28.53
2023-02-12T04:58:41.950Z,29.47
2023-02-12T04:59:14.220Z,31.00
2023-02-12T04:59:45.968Z,29.17
2023-02-12T05:00:18.149Z,28.67
2023-02-12T05:00:49.944Z,28.33
2023-02-12T05:01:21.739Z,29.00
2023-02-12T05:01:53.512Z,29.57
2023-02-12T05:02:25.317Z,27.17
2023-02-12T05:02:57.235Z,27.10
2023-02-12T05:03:29.039Z,28.17
2023-02-12T05:04:01.409Z,27.57
2023-02-12T05:04:33.239Z,30.53
2023-02-12T05:05:05.755Z,31.83
2023-02-12T05:05:37.708Z,30.37
2023-02-12T05:06:10.047Z,29.27
2023-02-12T05:06:43.403Z,30.30
2023-02-12T05:07:15.197Z,31.17
2023-02-12T05:07:47.160Z,30.47
2023-02-12T05:08:18.988Z,29.40
2023-02-12T05:08:53.253Z,30.80
2023-02-12T05:09:25.080Z,32.37
2023-02-12T05:09:57.091Z,30.30
2023-02-12T05:10:28.991Z,32.33
2023-02-12T05:11:08.963Z,31.73
2023-02-12T05:11:40.733Z,29.23
2023-02-12T05:12:12.845Z,29.60
2023-02-12T05:12:44.696Z,30.57
2023-02-12T05:13:16.517Z,32.77
2023-02-12T05:13:52.754Z,32.03
2023-02-12T05:14:25.750Z,28.40
2023-02-12T05:14:58.387Z,29.47
2023-02-12T05:15:30.184Z,29.63
2023-02-12T05:16:06.109Z,30.87
2023-02-12T05:16:40.825Z,29.60
2023-02-12T05:17:12.637Z,29.23
2023-02-12T05:17:45.893Z,30.40
2023-02-12T05:18:17.597Z,30.90
2023-02-12T05:18:49.749Z,28.50
2023-02-12T05:19:21.490Z,32.87
2023-02-12T05:19:53.253Z,32.73
2023-02-12T05:20:25.030Z,34.17
2023-02-12T05:21:01.414Z,32.43
2023-02-12T05:21:33.377Z,31.90
2023-02-12T05:22:05.784Z,31.20
2023-02-12T05:22:37.553Z,32.03
2023-02-12T05:23:09.297Z,33.47
2023-02-12T05:23:42.226Z,30.43
2023-02-12T05:24:13.950Z,31.80
2023-02-12T05:24:45.697Z,33.60
2023-02-12T05:25:17.566Z,34.47
2023-02-12T05:25:49.456Z,31.83
2023-02-12T05:26:22.838Z,31.83
2023-02-12T05:26:54.644Z,32.93
2023-02-12T05:27:26.534Z,31.37
2023-02-12T05:27:58.336Z,30.37
2023-02-12T05:28:30.605Z,30.90
2023-02-12T05:29:03.462Z,33.07
2023-02-12T05:29:36.890Z,32.40
2023-02-12T05:30:09.691Z,31.70
2023-02-12T05:30:41.470Z,32.90
2023-02-12T05:31:16.068Z,32.03
2023-02-12T05:31:47.977Z,31.60
2023-02-12T05:32:19.855Z,39.67
2023-02-12T05:32:51.680Z,37.67
2023-02-12T05:33:23.528Z,35.57
2023-02-12T05:33:55.427Z,35.27
2023-02-12T05:34:27.286Z,33.93
2023-02-12T05:34:59.064Z,34.40
2023-02-12T05:35:30.881Z,36.73
2023-02-12T05:36:11.563Z,39.37
2023-02-12T05:36:43.400Z,35.07
2023-02-12T05:37:15.191Z,35.23
2023-02-12T05:37:47.084Z,35.03
2023-02-12T05:38:19.075Z,32.33
2023-02-12T05:38:53.917Z,33.60
2023-02-12T05:39:25.698Z,34.93
2023-02-12T05:39:57.681Z,36.97
2023-02-12T05:40:29.485Z,32.63
2023-02-12T05:41:09.539Z,31.30
2023-02-12T05:41:41.280Z,31.87
2023-02-12T05:42:12.991Z,31.33
2023-02-12T05:42:44.837Z,31.10
2023-02-12T05:43:16.574Z,31.53
2023-02-12T05:43:49.962Z,33.83
2023-02-12T05:44:21.895Z,31.07
2023-02-12T05:44:53.688Z,31.13
2023-02-12T05:45:28.077Z,32.67
2023-02-12T05:46:04.967Z,31.83
2023-02-12T05:46:36.949Z,30.37
2023-02-12T05:47:09.179Z,28.83
2023-02-12T05:47:40.944Z,29.60
2023-02-12T05:48:12.741Z,28.67
2023-02-12T05:48:44.883Z,30.13
2023-02-12T05:49:16.704Z,29.70
2023-02-12T05:49:48.510Z,29.37
2023-02-12T05:50:20.529Z,29.30
2023-02-12T05:50:53.258Z,29.33
2023-02-12T05:51:27.398Z,28.70
2023-02-12T05:51:59.133Z,30.00
2023-02-12T05:52:30.896Z,30.63
2023-02-12T05:53:02.775Z,30.17
2023-02-12T05:53:34.598Z,29.50
2023-02-12T05:54:07.602Z,30.00
2023-02-12T05:54:39.367Z,29.37
2023-02-12T05:55:11.405Z,28.13
2023-02-12T05:55:43.166Z,28.70
2023-02-12T05:56:20.880Z,29.87
2023-02-12T05:56:52.665Z,30.23
2023-02-12T05:57:24.474Z,30.57
2023-02-12T05:57:56.246Z,31.53
2023-02-12T05:58:28.040Z,30.93
2023-02-12T05:59:05.960Z,29.73
2023-02-12T05:59:37.698Z,30.37
2023-02-12T06:00:10.787Z,31.70
2023-02-12T06:00:42.576Z,28.97
2023-02-12T06:01:17.466Z,29.07
2023-02-12T06:01:51.621Z,27.27
2023-02-12T06:02:23.473Z,29.93
2023-02-12T06:02:55.304Z,31.93
2023-02-12T06:03:27.577Z,31.57
2023-02-12T06:04:01.298Z,32.77
2023-02-12T06:04:33.143Z,32.30
2023-02-12T06:05:05.284Z,33.60
2023-02-12T06:05:37.044Z,34.13
2023-02-12T06:06:09.354Z,33.53
2023-02-12T06:06:42.319Z,35.43
2023-02-12T06:07:14.107Z,34.33
2023-02-12T06:07:46.022Z,33.37
2023-02-12T06:08:17.733Z,32.33
2023-02-12T06:08:49.714Z,33.03
2023-02-12T06:09:22.642Z,32.27
2023-02-12T06:09:55.258Z,32.60
2023-02-12T06:10:27.062Z,32.47
2023-02-12T06:11:08.515Z,33.37
2023-02-12T06:11:40.761Z,35.07
2023-02-12T06:12:12.539Z,33.63
2023-02-12T06:12:44.323Z,34.07
2023-02-12T06:13:16.088Z,35.77
2023-02-12T06:13:48.739Z,34.10
2023-02-12T06:14:21.878Z,32.97
2023-02-12T06:14:53.749Z,33.83
2023-02-12T06:15:25.519Z,32.57
2023-02-12T06:15:58.634Z,31.70
2023-02-12T06:16:32.285Z,33.03
2023-02-12T06:17:04.138Z,32.10
2023-02-12T06:17:36.116Z,33.40
2023-02-12T06:18:07.882Z,33.70
2023-02-12T06:18:39.648Z,35.33
2023-02-12T06:19:11.464Z,33.60
2023-02-12T06:19:43.200Z,32.87
2023-02-12T06:20:14.943Z,34.67
2023-02-12T06:20:46.653Z,35.50
2023-02-12T06:21:20.248Z,33.03
2023-02-12T06:21:52.012Z,34.90
2023-02-12T06:22:23.889Z,34.07
2023-02-12T06:22:55.657Z,33.53
2023-02-12T06:23:27.379Z,35.17
2023-02-12T06:23:59.502Z,35.00
2023-02-12T06:24:31.490Z,34.93
2023-02-12T06:25:03.363Z,33.67
2023-02-12T06:25:35.175Z,33.10
2023-02-12T06:26:06.994Z,34.27
2023-02-12T06:26:39.022Z,32.80
2023-02-12T06:27:10.758Z,32.57
2023-02-12T06:27:42.590Z,33.00
2023-02-12T06:28:14.477Z,32.60
2023-02-12T06:28:46.474Z,32.47
2023-02-12T06:29:19.738Z,33.23
2023-02-12T06:29:51.510Z,33.00
2023-02-12T06:30:23.366Z,32.80
2023-02-12T06:30:55.217Z,32.83
2023-02-12T06:31:30.998Z,29.97
2023-02-12T06:32:03.089Z,31.83
2023-02-12T06:32:34.986Z,28.90
2023-02-12T06:33:06.875Z,29.40
2023-02-12T06:33:38.635Z,28.00
2023-02-12T06:34:12.424Z,27.77
2023-02-12T06:34:44.184Z,30.43
2023-02-12T06:35:16.148Z,30.17
2023-02-12T06:35:47.935Z,30.53
2023-02-12T06:36:20.274Z,31.63
2023-02-12T06:36:52.071Z,32.77
2023-02-12T06:37:23.829Z,33.73
2023-02-12T06:37:55.544Z,32.97
2023-02-12T06:38:27.307Z,34.27
2023-02-12T06:39:01.468Z,33.77
2023-02-12T06:39:33.259Z,34.00
2023-02-12T06:40:05.830Z,32.77
2023-02-12T06:40:37.776Z,34.07
2023-02-12T06:41:10.337Z,35.13
2023-02-12T06:41:42.479Z,32.70
2023-02-12T06:42:14.237Z,29.87
2023-02-12T06:42:46.137Z,29.77
2023-02-12T06:43:18.073Z,31.33
2023-02-12T06:43:50.448Z,28.73
2023-02-12T06:44:22.302Z,31.23
2023-02-12T06:44:54.188Z,30.93
2023-02-12T06:45:25.976Z,28.10
2023-02-12T06:46:02.383Z,28.23
2023-02-12T06:46:34.692Z,30.63
2023-02-12T06:47:06.482Z,32.43
2023-02-12T06:47:38.269Z,33.03
2023-02-12T06:48:10.006Z,32.17
2023-02-12T06:48:41.850Z,31.17
2023-02-12T06:49:14.598Z,29.23
2023-02-12T06:49:46.444Z,29.20
2023-02-12T06:50:18.302Z,28.83
2023-02-12T06:50:50.083Z,30.23
2023-02-12T06:51:23.569Z,29.47
2023-02-12T06:51:55.413Z,31.80
2023-02-12T06:52:27.976Z,28.43
2023-02-12T06:52:59.837Z,30.47
2023-02-12T06:53:32.444Z,30.83
2023-02-12T06:54:04.211Z,27.00
2023-02-12T06:54:35.975Z,28.80
2023-02-12T06:55:07.928Z,30.20
2023-02-12T06:55:39.700Z,30.77
2023-02-12T06:56:13.963Z,30.17
2023-02-12T06:56:45.967Z,27.60
2023-02-12T06:57:17.774Z,28.57
2023-02-12T06:57:49.581Z,28.93
2023-02-12T06:58:21.358Z,29.10
2023-02-12T06:58:59.603Z,30.30
2023-02-12T06:59:31.730Z,29.30
2023-02-12T07:00:04.356Z,29.40
2023-02-12T07:00:36.142Z,30.30
2023-02-12T07:01:19.117Z,29.27
2023-02-12T07:01:50.869Z,29.60
2023-02-12T07:02:22.944Z,28.87
2023-02-12T07:02:56.224Z,28.60
2023-02-12T07:03:27.989Z,28.97
2023-02-12T07:04:02.644Z,28.10
2023-02-12T07:04:34.532Z,27.43
2023-02-12T07:05:06.782Z,27.33
2023-02-12T07:05:41.656Z,28.07
2023-02-12T07:06:14.085Z,30.27
2023-02-12T07:06:45.840Z,29.87
2023-02-12T07:07:17.701Z,28.23
2023-02-12T07:07:50.011Z,27.77
2023-02-12T07:08:21.737Z,28.33
2023-02-12T07:08:54.730Z,27.63
2023-02-12T07:09:27.571Z,27.20
2023-02-12T07:09:59.323Z,27.67
2023-02-12T07:10:31.256Z,28.03
2023-02-12T07:11:04.083Z,27.03
2023-02-12T07:11:38.288Z,28.73
2023-02-12T07:12:10.251Z,28.97
2023-02-12T07:12:41.979Z,27.47
2023-02-12T07:13:13.716Z,30.63
2023-02-12T07:13:45.840Z,32.30
2023-02-12T07:14:18.141Z,30.47
2023-02-12T07:14:49.909Z,30.17
2023-02-12T07:15:21.625Z,28.97
2023-02-12T07:15:53.765Z,26.97
2023-02-12T07:16:25.978Z,28.27
2023-02-12T07:16:58.370Z,32.30
2023-02-12T07:17:31.056Z,30.37
2023-02-12T07:18:02.811Z,29.00
2023-02-12T07:18:35.872Z,29.63
2023-02-12T07:19:07.831Z,32.03
2023-02-12T07:19:39.654Z,31.40
2023-02-12T07:20:11.872Z,29.23
2023-02-12T07:20:43.650Z,29.97
2023-02-12T07:21:17.191Z,31.33
2023-02-12T07:21:49.799Z,30.53
2023-02-12T07:22:22.309Z,31.40
2023-02-12T07:22:54.071Z,32.53
2023-02-12T07:23:25.854Z,31.90
2023-02-12T07:23:57.636Z,29.67
2023-02-12T07:24:29.471Z,28.87
2023-02-12T07:25:01.290Z,31.27
2023-02-12T07:25:33.136Z,34.83
2023-02-12T07:26:15.565Z,39.03
2023-02-12T07:26:47.674Z,38.70
2023-02-12T07:27:19.465Z,36.20
2023-02-12T07:27:51.218Z,38.37
2023-02-12T07:28:23.119Z,38.40
2023-02-12T07:28:54.966Z,37.43
2023-02-12T07:29:26.716Z,35.80
2023-02-12T07:29:58.509Z,31.50
2023-02-12T07:30:30.974Z,33.90
2023-02-12T07:31:11.599Z,34.80
2023-02-12T07:31:43.973Z,30.17
2023-02-12T07:32:15.810Z,28.97
2023-02-12T07:32:47.621Z,29.03
2023-02-12T07:33:20.608Z,28.30
2023-02-12T07:33:56.961Z,24.33
2023-02-12T07:34:28.779Z,25.17
2023-02-12T07:35:00.952Z,26.87
2023-02-12T07:35:32.703Z,27.33
2023-02-12T07:36:06.406Z,24.93
2023-02-12T07:36:38.478Z,24.30
2023-02-12T07:37:10.175Z,24.80
2023-02-12T07:37:41.972Z,25.40
2023-02-12T07:38:13.783Z,31.10
2023-02-12T07:38:47.107Z,27.00
2023-02-12T07:39:18.899Z,27.97
2023-02-12T07:39:50.768Z,26.63
2023-02-12T07:40:22.519Z,24.40
2023-02-12T07:40:57.436Z,24.73
2023-02-12T07:41:31.886Z,24.53
2023-02-12T07:42:03.693Z,24.80
2023-02-12T07:42:35.589Z,26.77
2023-02-12T07:43:07.323Z,26.87
2023-02-12T07:43:41.230Z,26.83